< < Back
Terminal Aerodrome Forecast


Current Version              Previous Versions:   1  2  3  4  5  6  7  8  9  

Terminal Aerodrome Forecast

733
FTUS42 KILM 261124
TAFFLO
TAF
KFLO 261124Z 2612/2712 VRB05KT P6SM SCT030 SCT060
     FM261700 12006KT P6SM SCT050
     FM270100 VRB02KT P6SM FEW060=

Latest METAR

808
SAUS70 KWBC 271600 RRA
MTRFLO
METAR KFLO 271553Z 09005KT 10SM CLR 32/22 A3011 RMK AO2 SLP193
T03220222


USA.gov is the U.S. government's official web portal to all federal, state and local government web resources and services.